createdAt,value
2022-09-24T00:00:56.870Z,83.19
2022-09-24T00:01:56.803Z,83.14
2022-09-24T00:02:56.753Z,83.55
2022-09-24T00:03:56.811Z,83.35
2022-09-24T00:04:56.648Z,83.33
2022-09-24T00:05:57.770Z,83.17
2022-09-24T00:06:56.729Z,83.39
2022-09-24T00:07:56.684Z,83.23
2022-09-24T00:08:56.760Z,83.17
2022-09-24T00:09:56.843Z,83.04
2022-09-24T00:10:56.730Z,83.52
2022-09-24T00:11:56.650Z,83.16
2022-09-24T00:12:56.569Z,83.28
2022-09-24T00:13:56.693Z,83.22
2022-09-24T00:14:56.531Z,82.97
2022-09-24T00:16:17.729Z,83.16
2022-09-24T00:16:56.509Z,82.92
2022-09-24T00:17:56.650Z,83.16
2022-09-24T00:18:56.670Z,83.22
2022-09-24T00:19:56.539Z,83.21
2022-09-24T00:20:56.461Z,83.91
2022-09-24T00:21:57.566Z,83.37
2022-09-24T00:22:56.414Z,83.02
2022-09-24T00:23:57.610Z,82.87
2022-09-24T00:24:56.408Z,83.39
2022-09-24T00:25:56.399Z,83.26
2022-09-24T00:26:56.468Z,82.82
2022-09-24T00:28:17.520Z,83.07
2022-09-24T00:28:56.450Z,83.44
2022-09-24T00:29:56.470Z,83.35
2022-09-24T00:30:56.330Z,83.51
2022-09-24T00:31:56.591Z,83.51
2022-09-24T00:32:56.308Z,83.39
2022-09-24T00:33:56.473Z,83.31
2022-09-24T00:34:56.276Z,83.40
2022-09-24T00:35:56.460Z,83.17
2022-09-24T00:36:56.372Z,83.14
2022-09-24T00:37:57.487Z,83.31
2022-09-24T00:38:56.260Z,83.47
2022-09-24T00:39:58.392Z,83.29
2022-09-24T00:40:56.167Z,83.40
2022-09-24T00:41:56.414Z,83.19
2022-09-24T00:42:56.139Z,83.35
2022-09-24T00:43:57.284Z,83.61
2022-09-24T00:44:56.252Z,83.50
2022-09-24T00:45:57.313Z,83.46
2022-09-24T00:46:56.260Z,83.70
2022-09-24T00:47:56.199Z,83.47
2022-09-24T00:48:56.183Z,83.58
2022-09-24T00:49:56.218Z,83.75
2022-09-24T00:50:56.068Z,83.25
2022-09-24T00:51:56.176Z,83.34
2022-09-24T00:52:56.038Z,83.56
2022-09-24T00:53:56.188Z,83.61
2022-09-24T00:54:56.017Z,83.84
2022-09-24T00:55:58.159Z,83.81
2022-09-24T00:56:56.169Z,83.99
2022-09-24T00:57:56.158Z,84.03
2022-09-24T00:58:55.991Z,84.07
2022-09-24T00:59:56.096Z,83.94
2022-09-24T01:00:55.960Z,83.86
2022-09-24T01:01:56.230Z,83.80
2022-09-24T01:02:55.997Z,83.87
2022-09-24T01:03:56.108Z,84.05
2022-09-24T01:04:56.734Z,83.97
2022-09-24T01:05:55.950Z,84.23
2022-09-24T01:06:56.036Z,83.94
2022-09-24T01:07:57.059Z,83.91
2022-09-24T01:08:55.872Z,84.39
2022-09-24T01:09:56.077Z,84.34
2022-09-24T01:10:55.795Z,85.03
2022-09-24T01:11:55.818Z,84.57
2022-09-24T01:12:55.803Z,84.99
2022-09-24T01:13:56.957Z,84.33
2022-09-24T01:14:55.947Z,83.62
2022-09-24T01:15:55.959Z,83.69
2022-09-24T01:16:55.696Z,84.10
2022-09-24T01:17:55.975Z,83.82
2022-09-24T01:18:55.677Z,83.70
2022-09-24T01:19:56.894Z,83.92
2022-09-24T01:20:55.808Z,83.98
2022-09-24T01:21:55.686Z,83.77
2022-09-24T01:22:55.762Z,83.93
2022-09-24T01:23:55.752Z,84.09
2022-09-24T01:24:55.598Z,84.57
2022-09-24T01:25:55.758Z,84.56
2022-09-24T01:26:55.589Z,84.10
2022-09-24T01:27:56.725Z,84.69
2022-09-24T01:28:55.644Z,84.61
2022-09-24T01:29:55.768Z,84.71
2022-09-24T01:30:55.657Z,84.60
2022-09-24T01:31:55.659Z,84.54
2022-09-24T01:32:55.754Z,84.57
2022-09-24T01:33:55.596Z,84.61
2022-09-24T01:34:55.457Z,84.64
2022-09-24T01:35:55.663Z,84.90
2022-09-24T01:36:55.495Z,84.60
2022-09-24T01:37:55.635Z,84.50
2022-09-24T01:38:55.567Z,84.46
2022-09-24T01:39:55.518Z,84.33
2022-09-24T01:40:55.664Z,84.15
2022-09-24T01:41:55.435Z,84.37
2022-09-24T01:42:55.371Z,84.39
2022-09-24T01:43:55.475Z,84.55
2022-09-24T01:44:55.358Z,84.69
2022-09-24T01:45:55.631Z,84.77
2022-09-24T01:46:55.350Z,84.72
2022-09-24T01:47:55.471Z,84.53
2022-09-24T01:48:55.344Z,84.59
2022-09-24T01:49:55.401Z,84.93
2022-09-24T01:50:55.418Z,85.05
2022-09-24T01:51:55.314Z,84.68
2022-09-24T01:52:55.406Z,84.76
2022-09-24T01:53:55.388Z,84.80
2022-09-24T01:54:55.205Z,84.80
2022-09-24T01:55:55.411Z,84.72
2022-09-24T01:56:55.204Z,84.78
2022-09-24T01:58:16.413Z,84.75
2022-09-24T01:58:55.333Z,84.70
2022-09-24T01:59:55.473Z,84.93
2022-09-24T02:00:55.177Z,84.93
2022-09-24T02:01:55.272Z,84.79
2022-09-24T02:02:55.114Z,84.85
2022-09-24T02:03:55.358Z,84.87
2022-09-24T02:04:55.072Z,84.95
2022-09-24T02:05:56.184Z,84.97
2022-09-24T02:06:55.073Z,85.15
2022-09-24T02:07:55.190Z,85.13
2022-09-24T02:08:55.043Z,84.79
2022-09-24T02:09:55.243Z,84.74
2022-09-24T02:10:55.124Z,84.78
2022-09-24T02:11:55.071Z,84.66
2022-09-24T02:12:55.004Z,84.62
2022-09-24T02:13:55.108Z,84.74
2022-09-24T02:14:54.962Z,84.71
2022-09-24T02:15:55.317Z,84.59
2022-09-24T02:16:54.922Z,84.41
2022-09-24T02:17:55.143Z,84.32
2022-09-24T02:18:55.064Z,84.24
2022-09-24T02:19:55.014Z,84.36
2022-09-24T02:20:55.042Z,84.37
2022-09-24T02:21:56.067Z,84.63
2022-09-24T02:22:54.954Z,84.54
2022-09-24T02:23:54.980Z,84.67
2022-09-24T02:24:54.856Z,84.73
2022-09-24T02:25:54.953Z,85.22
2022-09-24T02:26:54.831Z,84.89
2022-09-24T02:27:54.851Z,84.77
2022-09-24T02:28:54.820Z,84.95
2022-09-24T02:29:54.849Z,84.74
2022-09-24T02:30:54.912Z,84.64
2022-09-24T02:31:55.716Z,84.90
2022-09-24T02:32:54.900Z,84.90
2022-09-24T02:33:54.800Z,84.93
2022-09-24T02:34:54.742Z,84.91
2022-09-24T02:35:54.791Z,84.98
2022-09-24T02:36:54.653Z,84.76
2022-09-24T02:37:54.830Z,84.72
2022-09-24T02:38:54.680Z,84.77
2022-09-24T02:39:56.762Z,84.75
2022-09-24T02:40:54.709Z,84.62
2022-09-24T02:41:54.892Z,84.72
2022-09-24T02:42:54.771Z,84.89
2022-09-24T02:43:56.732Z,84.94
2022-09-24T02:44:54.659Z,85.06
2022-09-24T02:45:54.668Z,84.89
2022-09-24T02:46:54.625Z,84.88
2022-09-24T02:47:55.780Z,84.88
2022-09-24T02:48:54.490Z,84.71
2022-09-24T02:49:54.771Z,84.59
2022-09-24T02:50:54.492Z,84.66
2022-09-24T02:51:55.599Z,84.78
2022-09-24T02:52:54.500Z,84.44
2022-09-24T02:53:54.581Z,84.26
2022-09-24T02:54:54.512Z,84.39
2022-09-24T02:55:54.691Z,84.54
2022-09-24T02:56:54.549Z,84.75
2022-09-24T02:57:54.530Z,84.51
2022-09-24T02:58:54.492Z,84.36
2022-09-24T02:59:54.511Z,84.42
2022-09-24T03:00:54.341Z,84.50
2022-09-24T03:01:55.644Z,84.74
2022-09-24T03:02:54.632Z,85.00
2022-09-24T03:03:54.379Z,84.75
2022-09-24T03:04:54.280Z,84.76
2022-09-24T03:05:54.378Z,84.74
2022-09-24T03:06:54.300Z,84.98
2022-09-24T03:07:54.380Z,85.05
2022-09-24T03:08:54.412Z,84.88
2022-09-24T03:09:54.332Z,84.75
2022-09-24T03:10:54.212Z,84.86
2022-09-24T03:11:54.316Z,85.00
2022-09-24T03:12:54.181Z,85.06
2022-09-24T03:13:54.430Z,85.12
2022-09-24T03:14:54.548Z,84.94
2022-09-24T03:15:54.361Z,84.72
2022-09-24T03:16:54.128Z,84.82
2022-09-24T03:17:54.165Z,84.58
2022-09-24T03:18:54.104Z,84.69
2022-09-24T03:19:54.216Z,84.84
2022-09-24T03:20:54.136Z,85.01
2022-09-24T03:21:54.330Z,85.06
2022-09-24T03:22:54.117Z,85.03
2022-09-24T03:23:54.089Z,85.14
2022-09-24T03:24:54.019Z,85.30
2022-09-24T03:25:54.100Z,85.17
2022-09-24T03:26:54.017Z,85.31
2022-09-24T03:27:54.205Z,85.33
2022-09-24T03:28:54.088Z,85.23
2022-09-24T03:29:54.028Z,85.31
2022-09-24T03:30:54.003Z,85.42
2022-09-24T03:31:54.083Z,85.52
2022-09-24T03:32:53.952Z,85.93
2022-09-24T03:33:54.059Z,85.62
2022-09-24T03:34:53.886Z,85.64
2022-09-24T03:35:54.035Z,85.60
2022-09-24T03:36:53.987Z,85.57
2022-09-24T03:37:53.877Z,85.22
2022-09-24T03:38:53.977Z,85.47
2022-09-24T03:39:53.897Z,86.21
2022-09-24T03:40:53.909Z,86.19
2022-09-24T03:41:53.956Z,85.74
2022-09-24T03:42:53.795Z,85.06
2022-09-24T03:43:53.818Z,84.66
2022-09-24T03:44:53.866Z,84.63
2022-09-24T03:45:53.855Z,84.93
2022-09-24T03:46:53.906Z,85.06
2022-09-24T03:47:53.816Z,85.12
2022-09-24T03:48:53.707Z,85.39
2022-09-24T03:49:53.896Z,85.69
2022-09-24T03:50:53.756Z,85.75
2022-09-24T03:51:53.778Z,85.52
2022-09-24T03:52:53.655Z,85.33
2022-09-24T03:53:53.847Z,85.79
2022-09-24T03:54:53.726Z,85.80
2022-09-24T03:55:53.706Z,85.78
2022-09-24T03:56:53.696Z,85.70
2022-09-24T03:57:53.717Z,85.82
2022-09-24T03:58:53.616Z,85.75
2022-09-24T03:59:53.630Z,85.64
2022-09-24T04:00:53.649Z,85.61
2022-09-24T04:01:53.721Z,85.72
2022-09-24T04:02:53.634Z,85.89
2022-09-24T04:03:54.584Z,85.78
2022-09-24T04:04:53.588Z,86.12
2022-09-24T04:05:53.576Z,86.14
2022-09-24T04:06:53.484Z,85.93
2022-09-24T04:07:53.538Z,85.52
2022-09-24T04:08:53.596Z,85.29
2022-09-24T04:09:53.643Z,85.26
2022-09-24T04:10:53.414Z,85.12
2022-09-24T04:11:53.635Z,85.21
2022-09-24T04:12:53.474Z,85.39
2022-09-24T04:13:53.485Z,85.69
2022-09-24T04:14:53.395Z,86.04
2022-09-24T04:15:54.494Z,86.01
2022-09-24T04:16:53.434Z,85.33
2022-09-24T04:17:53.353Z,84.93
2022-09-24T04:18:53.324Z,84.82
2022-09-24T04:19:53.495Z,84.68
2022-09-24T04:20:53.314Z,84.73
2022-09-24T04:21:53.446Z,84.89
2022-09-24T04:22:53.414Z,84.92
2022-09-24T04:23:54.324Z,85.08
2022-09-24T04:24:53.273Z,85.27
2022-09-24T04:25:53.313Z,85.22
2022-09-24T04:26:53.237Z,85.23
2022-09-24T04:27:53.323Z,85.49
2022-09-24T04:28:53.185Z,85.59
2022-09-24T04:29:54.273Z,85.92
2022-09-24T04:30:53.303Z,86.04
2022-09-24T04:31:53.296Z,85.83
2022-09-24T04:32:53.163Z,85.84
2022-09-24T04:33:53.270Z,85.77
2022-09-24T04:34:53.114Z,85.82
2022-09-24T04:35:53.410Z,85.98
2022-09-24T04:36:53.245Z,85.74
2022-09-24T04:37:53.173Z,85.67
2022-09-24T04:38:53.074Z,85.53
2022-09-24T04:39:53.200Z,85.62
2022-09-24T04:40:53.169Z,85.48
2022-09-24T04:41:53.123Z,85.53
2022-09-24T04:42:53.012Z,85.75
2022-09-24T04:43:53.111Z,85.85
2022-09-24T04:44:56.130Z,85.89
2022-09-24T04:45:53.045Z,85.84
2022-09-24T04:46:52.980Z,85.90
2022-09-24T04:47:53.152Z,85.95
2022-09-24T04:48:52.984Z,85.96
2022-09-24T04:49:52.973Z,85.98
2022-09-24T04:50:52.945Z,85.83
2022-09-24T04:51:53.036Z,85.85
2022-09-24T04:52:52.873Z,85.99
2022-09-24T04:53:52.911Z,85.87
2022-09-24T04:54:52.960Z,85.70
2022-09-24T04:55:52.958Z,85.66
2022-09-24T04:56:52.869Z,85.80
2022-09-24T04:57:52.862Z,85.90
2022-09-24T04:58:52.880Z,85.76
2022-09-24T04:59:52.941Z,85.99
2022-09-24T05:00:52.800Z,86.13
2022-09-24T05:01:52.996Z,86.02
2022-09-24T05:02:52.857Z,86.18
2022-09-24T05:03:52.762Z,86.25
2022-09-24T05:04:52.730Z,85.91
2022-09-24T05:05:52.790Z,86.01
2022-09-24T05:06:52.711Z,86.11
2022-09-24T05:07:52.695Z,86.08
2022-09-24T05:08:52.773Z,85.80
2022-09-24T05:09:52.712Z,85.82
2022-09-24T05:10:52.640Z,85.93
2022-09-24T05:11:52.790Z,86.16
2022-09-24T05:12:52.750Z,85.80
2022-09-24T05:13:52.640Z,85.41
2022-09-24T05:14:52.686Z,85.37
2022-09-24T05:15:52.802Z,85.29
2022-09-24T05:16:52.569Z,85.43
2022-09-24T05:17:52.712Z,85.57
2022-09-24T05:18:52.740Z,85.70
2022-09-24T05:19:52.680Z,85.96
2022-09-24T05:20:52.552Z,85.80
2022-09-24T05:21:52.738Z,85.81
2022-09-24T05:22:52.480Z,85.60
2022-09-24T05:23:52.609Z,85.62
2022-09-24T05:24:52.449Z,85.80
2022-09-24T05:25:52.590Z,85.84
2022-09-24T05:26:52.448Z,85.99
2022-09-24T05:27:52.537Z,86.06
2022-09-24T05:28:52.406Z,86.11
2022-09-24T05:29:52.500Z,86.00
2022-09-24T05:30:52.402Z,85.89
2022-09-24T05:31:52.601Z,85.91
2022-09-24T05:32:52.578Z,85.91
2022-09-24T05:33:52.445Z,86.05
2022-09-24T05:34:52.350Z,86.04
2022-09-24T05:35:52.409Z,86.33
2022-09-24T05:36:52.295Z,86.40
2022-09-24T05:37:52.449Z,86.48
2022-09-24T05:38:52.308Z,86.53
2022-09-24T05:39:52.394Z,86.75
2022-09-24T05:40:52.367Z,86.59
2022-09-24T05:41:52.328Z,86.37
2022-09-24T05:42:52.227Z,86.52
2022-09-24T05:43:52.366Z,86.58
2022-09-24T05:44:52.564Z,86.38
2022-09-24T05:45:52.329Z,86.54
2022-09-24T05:46:52.281Z,86.36
2022-09-24T05:47:52.357Z,86.36
2022-09-24T05:48:52.137Z,86.57
2022-09-24T05:49:52.367Z,86.69
2022-09-24T05:50:52.238Z,86.43
2022-09-24T05:51:52.217Z,86.32
2022-09-24T05:52:52.187Z,86.41
2022-09-24T05:53:52.107Z,86.41
2022-09-24T05:54:52.187Z,86.59
2022-09-24T05:55:52.128Z,86.58
2022-09-24T05:56:52.175Z,86.59
2022-09-24T05:57:52.136Z,86.30
2022-09-24T05:58:52.077Z,86.26
2022-09-24T05:59:52.067Z,86.18
2022-09-24T06:00:51.985Z,86.34
2022-09-24T06:01:52.175Z,86.48
2022-09-24T06:02:52.137Z,86.41
2022-09-24T06:03:52.003Z,86.46
2022-09-24T06:04:52.187Z,86.66
2022-09-24T06:05:52.039Z,86.70
2022-09-24T06:06:51.908Z,86.62
2022-09-24T06:07:52.006Z,86.63
2022-09-24T06:08:52.016Z,86.44
2022-09-24T06:09:51.995Z,86.34
2022-09-24T06:10:51.868Z,86.40
2022-09-24T06:11:51.986Z,86.68
2022-09-24T06:12:51.867Z,86.77
2022-09-24T06:13:51.897Z,86.96
2022-09-24T06:14:51.868Z,87.06
2022-09-24T06:15:51.912Z,87.10
2022-09-24T06:16:51.775Z,87.04
2022-09-24T06:17:51.950Z,86.90
2022-09-24T06:18:51.765Z,86.73
2022-09-24T06:19:51.899Z,86.60
2022-09-24T06:20:51.739Z,86.31
2022-09-24T06:21:52.824Z,86.29
2022-09-24T06:22:51.693Z,86.46
2022-09-24T06:23:52.755Z,86.66
2022-09-24T06:24:51.665Z,86.08
2022-09-24T06:25:51.847Z,85.57
2022-09-24T06:26:51.704Z,85.43
2022-09-24T06:27:52.685Z,85.24
2022-09-24T06:28:51.622Z,84.68
2022-09-24T06:29:51.702Z,85.43
2022-09-24T06:30:51.674Z,85.66
2022-09-24T06:31:51.760Z,85.32
2022-09-24T06:32:51.577Z,84.37
2022-09-24T06:33:51.583Z,84.77
2022-09-24T06:34:54.409Z,84.38
2022-09-24T06:35:52.632Z,84.73
2022-09-24T06:36:51.641Z,84.84
2022-09-24T06:37:51.494Z,85.47
2022-09-24T06:38:51.644Z,86.03
2022-09-24T06:39:51.473Z,86.11
2022-09-24T06:40:51.573Z,85.91
2022-09-24T06:41:51.468Z,84.02
2022-09-24T06:42:52.464Z,83.77
2022-09-24T06:43:51.427Z,84.57
2022-09-24T06:44:51.614Z,83.97
2022-09-24T06:45:51.392Z,83.16
2022-09-24T06:46:51.622Z,83.21
2022-09-24T06:47:51.363Z,83.84
2022-09-24T06:48:51.499Z,85.22
2022-09-24T06:49:51.342Z,84.93
2022-09-24T06:50:51.532Z,84.23
2022-09-24T06:51:51.313Z,84.29
2022-09-24T06:52:51.441Z,84.59
2022-09-24T06:53:51.342Z,83.24
2022-09-24T06:54:51.341Z,83.14
2022-09-24T06:55:51.390Z,83.57
2022-09-24T06:56:51.496Z,82.88
2022-09-24T06:57:51.290Z,82.60
2022-09-24T06:58:51.292Z,80.57
2022-09-24T06:59:51.292Z,81.01
2022-09-24T07:00:51.322Z,80.55
2022-09-24T07:01:51.371Z,80.65
2022-09-24T07:02:51.222Z,80.86
2022-09-24T07:03:51.180Z,80.00
2022-09-24T07:04:51.193Z,80.73
2022-09-24T07:05:51.239Z,80.25
2022-09-24T07:06:51.203Z,79.53
2022-09-24T07:07:51.100Z,78.91
2022-09-24T07:08:51.280Z,78.94
2022-09-24T07:09:51.082Z,79.74
2022-09-24T07:10:51.179Z,78.83
2022-09-24T07:11:51.043Z,78.25
2022-09-24T07:12:51.281Z,77.79
2022-09-24T07:13:51.020Z,77.95
2022-09-24T07:14:52.133Z,77.81
2022-09-24T07:15:51.142Z,78.76
2022-09-24T07:16:51.105Z,78.67
2022-09-24T07:17:50.969Z,78.02
2022-09-24T07:18:51.139Z,78.25
2022-09-24T07:19:51.093Z,77.83
2022-09-24T07:20:51.041Z,78.30
2022-09-24T07:21:50.923Z,79.09
2022-09-24T07:22:51.020Z,79.00
2022-09-24T07:23:55.103Z,78.56
2022-09-24T07:24:51.879Z,77.48
2022-09-24T07:25:53.038Z,77.14
2022-09-24T07:26:50.881Z,78.02
2022-09-24T07:28:11.963Z,77.97
2022-09-24T07:28:50.956Z,77.19
2022-09-24T07:29:50.852Z,77.54
2022-09-24T07:30:50.849Z,77.43
2022-09-24T07:31:51.091Z,77.81
2022-09-24T07:32:51.030Z,78.05
2022-09-24T07:33:50.823Z,78.17
2022-09-24T07:34:50.822Z,78.50
2022-09-24T07:35:50.792Z,78.78
2022-09-24T07:36:50.720Z,78.60
2022-09-24T07:37:50.960Z,78.56
2022-09-24T07:38:50.860Z,78.24
2022-09-24T07:39:50.782Z,78.65
2022-09-24T07:40:50.730Z,78.05
2022-09-24T07:41:50.887Z,77.41
2022-09-24T07:42:50.720Z,76.77
2022-09-24T07:43:50.751Z,75.66
2022-09-24T07:44:50.700Z,76.15
2022-09-24T07:45:50.670Z,75.94
2022-09-24T07:46:50.632Z,76.29
2022-09-24T07:47:51.604Z,75.87
2022-09-24T07:48:50.671Z,75.74
2022-09-24T07:49:50.610Z,75.90
2022-09-24T07:50:50.569Z,75.57
2022-09-24T07:51:50.614Z,75.78
2022-09-24T07:52:50.575Z,76.35
2022-09-24T07:53:50.612Z,75.66
2022-09-24T07:54:50.531Z,74.19
2022-09-24T07:55:50.530Z,74.93
2022-09-24T07:56:50.479Z,75.22
2022-09-24T07:57:50.619Z,74.86
2022-09-24T07:58:50.506Z,75.42
2022-09-24T07:59:50.499Z,75.24
2022-09-24T08:00:50.401Z,75.82
2022-09-24T08:01:50.605Z,75.93
2022-09-24T08:02:50.382Z,75.32
2022-09-24T08:03:50.453Z,75.34
2022-09-24T08:04:50.338Z,74.99
2022-09-24T08:05:50.425Z,74.80
2022-09-24T08:06:50.320Z,74.11
2022-09-24T08:07:50.321Z,74.34
2022-09-24T08:08:50.343Z,75.01
2022-09-24T08:09:50.420Z,73.43
2022-09-24T08:10:50.331Z,72.06
2022-09-24T08:11:50.351Z,72.55
2022-09-24T08:12:50.238Z,73.17
2022-09-24T08:13:50.362Z,72.55
2022-09-24T08:14:50.330Z,73.67
2022-09-24T08:15:50.330Z,72.71
2022-09-24T08:16:50.191Z,72.68
2022-09-24T08:17:50.189Z,73.38
2022-09-24T08:18:50.210Z,72.68
2022-09-24T08:19:50.200Z,71.96
2022-09-24T08:20:50.352Z,73.21
2022-09-24T08:21:50.243Z,73.13
2022-09-24T08:22:50.161Z,72.37
2022-09-24T08:23:50.131Z,72.59
2022-09-24T08:24:50.153Z,72.75
2022-09-24T08:25:50.140Z,73.26
2022-09-24T08:26:50.079Z,72.88
2022-09-24T08:27:50.092Z,72.83
2022-09-24T08:28:50.094Z,73.25
2022-09-24T08:29:50.070Z,73.80
2022-09-24T08:30:50.115Z,73.11
2022-09-24T08:31:51.116Z,72.62
2022-09-24T08:32:50.030Z,73.24
2022-09-24T08:33:50.002Z,73.29
2022-09-24T08:34:49.988Z,73.06
2022-09-24T08:35:50.081Z,73.08
2022-09-24T08:36:49.921Z,73.08
2022-09-24T08:37:50.062Z,73.01
2022-09-24T08:38:50.051Z,72.62
2022-09-24T08:39:49.971Z,72.38
2022-09-24T08:40:49.915Z,73.03
2022-09-24T08:41:50.131Z,71.93
2022-09-24T08:42:49.930Z,71.90
2022-09-24T08:43:49.861Z,71.56
2022-09-24T08:44:49.841Z,71.30
2022-09-24T08:45:50.901Z,72.84
2022-09-24T08:46:49.953Z,72.33
2022-09-24T08:47:49.810Z,70.53
2022-09-24T08:48:49.763Z,70.58
2022-09-24T08:49:50.940Z,70.47
2022-09-24T08:50:49.770Z,71.24
2022-09-24T08:51:49.841Z,71.94
2022-09-24T08:52:49.710Z,72.00
2022-09-24T08:53:49.831Z,72.87
2022-09-24T08:54:49.680Z,70.78
2022-09-24T08:55:49.898Z,71.23
2022-09-24T08:56:49.681Z,71.52
2022-09-24T08:57:50.682Z,69.46
2022-09-24T08:58:49.682Z,69.35
2022-09-24T08:59:49.702Z,69.60
2022-09-24T09:00:49.604Z,69.84
2022-09-24T09:01:49.789Z,69.89
2022-09-24T09:02:49.673Z,70.50
2022-09-24T09:03:49.625Z,70.45
2022-09-24T09:04:49.559Z,70.55
2022-09-24T09:05:49.845Z,70.54
2022-09-24T09:06:49.524Z,69.75
2022-09-24T09:07:49.521Z,69.24
2022-09-24T09:09:06.386Z,70.27
2022-09-24T09:09:50.480Z,70.85
2022-09-24T09:10:49.503Z,70.89
2022-09-24T09:11:49.669Z,70.39
2022-09-24T09:12:49.430Z,70.67
2022-09-24T09:13:49.472Z,71.46
2022-09-24T09:14:49.431Z,70.75
2022-09-24T09:15:50.554Z,70.66
2022-09-24T09:16:49.531Z,69.66
2022-09-24T09:17:49.481Z,70.04
2022-09-24T09:18:49.360Z,70.45
2022-09-24T09:19:53.728Z,68.98
2022-09-24T09:20:49.434Z,68.80
2022-09-24T09:21:49.421Z,69.57
2022-09-24T09:22:49.301Z,68.08
2022-09-24T09:23:49.386Z,68.01
2022-09-24T09:24:49.392Z,67.57
2022-09-24T09:25:49.341Z,66.24
2022-09-24T09:26:49.401Z,65.97
2022-09-24T09:27:49.422Z,66.15
2022-09-24T09:28:49.230Z,67.66
2022-09-24T09:29:49.371Z,69.28
2022-09-24T09:30:49.289Z,69.31
2022-09-24T09:31:53.868Z,69.92
2022-09-24T09:32:50.200Z,69.55
2022-09-24T09:33:49.204Z,68.36
2022-09-24T09:34:49.192Z,68.38
2022-09-24T09:35:49.285Z,69.63
2022-09-24T09:36:49.152Z,69.52
2022-09-24T09:37:49.128Z,69.78
2022-09-24T09:38:49.243Z,68.00
2022-09-24T09:39:49.145Z,68.33
2022-09-24T09:40:49.142Z,69.43
2022-09-24T09:41:49.191Z,66.17
2022-09-24T09:42:49.043Z,66.65
2022-09-24T09:43:49.070Z,67.95
2022-09-24T09:44:49.211Z,68.17
2022-09-24T09:45:49.102Z,67.08
2022-09-24T09:46:49.255Z,66.18
2022-09-24T09:47:49.032Z,65.22
2022-09-24T09:48:48.981Z,64.64
2022-09-24T09:49:49.030Z,66.08
2022-09-24T09:50:49.073Z,66.42
2022-09-24T09:51:49.025Z,66.35
2022-09-24T09:52:48.913Z,66.48
2022-09-24T09:53:49.063Z,66.40
2022-09-24T09:54:48.900Z,66.51
2022-09-24T09:55:48.981Z,64.73
2022-09-24T09:56:48.872Z,65.44
2022-09-24T09:57:49.904Z,65.71
2022-09-24T09:58:48.883Z,65.07
2022-09-24T09:59:48.921Z,66.15
2022-09-24T10:00:48.845Z,68.49
2022-09-24T10:01:48.947Z,66.74
2022-09-24T10:02:49.000Z,65.78
2022-09-24T10:03:48.813Z,66.42
2022-09-24T10:04:51.964Z,66.76
2022-09-24T10:05:48.925Z,66.92
2022-09-24T10:06:48.726Z,66.63
2022-09-24T10:07:48.814Z,66.67
2022-09-24T10:08:48.737Z,67.01
2022-09-24T10:09:48.783Z,65.64
2022-09-24T10:10:48.672Z,66.49
2022-09-24T10:11:49.792Z,65.41
2022-09-24T10:12:48.673Z,64.18
2022-09-24T10:13:48.720Z,65.88
2022-09-24T10:14:48.686Z,67.80
2022-09-24T10:15:48.830Z,67.62
2022-09-24T10:16:48.726Z,68.07
2022-09-24T10:17:48.603Z,67.03
2022-09-24T10:18:48.774Z,67.05
2022-09-24T10:19:48.621Z,67.54
2022-09-24T10:20:48.650Z,68.50
2022-09-24T10:21:48.523Z,66.87
2022-09-24T10:22:48.735Z,66.32
2022-09-24T10:23:48.563Z,65.35
2022-09-24T10:24:48.488Z,64.61
2022-09-24T10:25:48.568Z,64.74
2022-09-24T10:26:48.644Z,66.40
2022-09-24T10:27:48.465Z,65.27
2022-09-24T10:28:48.433Z,67.07
2022-09-24T10:29:48.501Z,67.31
2022-09-24T10:30:48.474Z,66.22
2022-09-24T10:31:48.510Z,64.55
2022-09-24T10:32:48.407Z,62.55
2022-09-24T10:33:48.484Z,63.10
2022-09-24T10:34:48.364Z,64.38
2022-09-24T10:35:48.424Z,64.37
2022-09-24T10:36:48.423Z,62.91
2022-09-24T10:37:48.464Z,60.84
2022-09-24T10:38:48.364Z,63.00
2022-09-24T10:39:48.354Z,63.77
2022-09-24T10:40:48.479Z,63.39
2022-09-24T10:41:48.703Z,62.89
2022-09-24T10:42:48.244Z,63.29
2022-09-24T10:43:50.376Z,63.91
2022-09-24T10:44:52.721Z,64.68
2022-09-24T10:45:48.305Z,63.56
2022-09-24T10:46:48.442Z,63.02
2022-09-24T10:47:48.175Z,62.40
2022-09-24T10:48:49.234Z,62.21
2022-09-24T10:49:48.224Z,61.71
2022-09-24T10:50:48.176Z,61.71
2022-09-24T10:51:48.136Z,61.88
2022-09-24T10:52:48.235Z,62.24
2022-09-24T10:53:48.108Z,61.91
2022-09-24T10:54:48.245Z,61.79
2022-09-24T10:55:48.275Z,62.05
2022-09-24T10:56:48.115Z,61.02
2022-09-24T10:57:48.051Z,60.92
2022-09-24T10:58:48.084Z,60.53
2022-09-24T10:59:48.017Z,60.75
2022-09-24T11:00:48.188Z,61.99
2022-09-24T11:01:48.136Z,62.08
2022-09-24T11:02:48.077Z,61.31
2022-09-24T11:03:48.068Z,60.86
2022-09-24T11:04:48.034Z,61.67
2022-09-24T11:05:48.106Z,62.42
2022-09-24T11:06:48.036Z,63.02
2022-09-24T11:07:47.909Z,61.96
2022-09-24T11:08:48.084Z,62.74
2022-09-24T11:09:47.886Z,62.94
2022-09-24T11:10:48.035Z,63.92
2022-09-24T11:11:47.967Z,63.21
2022-09-24T11:12:47.884Z,62.74
2022-09-24T11:13:51.191Z,62.36
2022-09-24T11:14:48.006Z,62.67
2022-09-24T11:15:47.940Z,62.28
2022-09-24T11:16:47.783Z,62.65
2022-09-24T11:17:47.919Z,63.08
2022-09-24T11:18:47.797Z,62.11
2022-09-24T11:19:47.748Z,62.98
2022-09-24T11:20:47.799Z,63.18
2022-09-24T11:21:47.811Z,63.04
2022-09-24T11:22:47.797Z,62.86
2022-09-24T11:23:47.748Z,62.14
2022-09-24T11:24:47.706Z,61.83
2022-09-24T11:25:47.785Z,60.13
2022-09-24T11:26:47.677Z,61.37
2022-09-24T11:27:47.688Z,59.67
2022-09-24T11:28:47.687Z,60.49
2022-09-24T11:29:47.697Z,61.54
2022-09-24T11:30:47.598Z,61.96
2022-09-24T11:31:47.691Z,60.74
2022-09-24T11:32:47.802Z,61.14
2022-09-24T11:33:47.668Z,61.32
2022-09-24T11:34:47.541Z,62.83
2022-09-24T11:35:47.630Z,62.13
2022-09-24T11:36:47.555Z,62.10
2022-09-24T11:37:47.588Z,62.30
2022-09-24T11:38:47.700Z,62.47
2022-09-24T11:39:47.620Z,64.24
2022-09-24T11:40:47.509Z,65.93
2022-09-24T11:41:47.478Z,63.04
2022-09-24T11:42:47.537Z,61.83
2022-09-24T11:43:47.489Z,63.01
2022-09-24T11:44:47.439Z,62.03
2022-09-24T11:45:47.603Z,61.61
2022-09-24T11:46:47.590Z,62.50
2022-09-24T11:47:47.466Z,63.35
2022-09-24T11:48:47.366Z,63.79
2022-09-24T11:49:48.456Z,63.13
2022-09-24T11:50:48.169Z,61.88
2022-09-24T11:51:47.450Z,62.34
2022-09-24T11:52:47.310Z,63.35
2022-09-24T11:53:47.359Z,64.57
2022-09-24T11:54:47.380Z,65.13
2022-09-24T11:55:47.370Z,62.70
2022-09-24T11:56:47.291Z,62.09
2022-09-24T11:57:49.405Z,62.30
2022-09-24T11:58:49.782Z,61.61
2022-09-24T11:59:48.190Z,63.46
2022-09-24T12:00:48.086Z,63.41
2022-09-24T12:01:47.830Z,63.70
2022-09-24T12:02:48.451Z,62.68
2022-09-24T12:03:47.778Z,61.81
2022-09-24T12:04:47.223Z,60.76
2022-09-24T12:05:47.532Z,62.10
2022-09-24T12:06:47.307Z,61.67
2022-09-24T12:07:47.941Z,59.99
2022-09-24T12:08:48.070Z,59.83
2022-09-24T12:09:49.781Z,60.83
2022-09-24T12:10:47.847Z,61.16
2022-09-24T12:11:47.859Z,61.62
2022-09-24T12:12:48.497Z,61.40
2022-09-24T12:13:47.809Z,63.29
2022-09-24T12:14:48.851Z,61.18
2022-09-24T12:15:48.298Z,60.28
2022-09-24T12:16:47.644Z,60.00
2022-09-24T12:17:47.297Z,60.07
2022-09-24T12:18:47.438Z,59.85
2022-09-24T12:19:48.106Z,60.34
2022-09-24T12:20:47.520Z,60.91
2022-09-24T12:21:48.385Z,60.06
2022-09-24T12:22:47.921Z,59.67
2022-09-24T12:23:49.335Z,56.61
2022-09-24T12:24:47.298Z,56.19
2022-09-24T12:25:47.097Z,56.95
2022-09-24T12:26:47.687Z,59.31
2022-09-24T12:27:47.889Z,58.48
2022-09-24T12:28:49.131Z,59.25
2022-09-24T12:29:49.222Z,60.40
2022-09-24T12:30:47.851Z,61.63
2022-09-24T12:31:49.091Z,58.91
2022-09-24T12:32:47.754Z,59.19
2022-09-24T12:33:47.264Z,58.36
2022-09-24T12:34:48.139Z,56.43
2022-09-24T12:35:48.214Z,57.16
2022-09-24T12:36:47.450Z,58.21
2022-09-24T12:37:48.663Z,57.79
2022-09-24T12:38:47.231Z,57.98
2022-09-24T12:39:47.278Z,60.33
2022-09-24T12:40:47.055Z,59.36
2022-09-24T12:41:47.341Z,59.42
2022-09-24T12:42:47.180Z,58.60
2022-09-24T12:43:46.924Z,58.72
2022-09-24T12:44:47.191Z,59.15
2022-09-24T12:45:47.057Z,58.19
2022-09-24T12:46:47.190Z,57.78
2022-09-24T12:47:47.765Z,59.84
2022-09-24T12:48:47.351Z,58.35
2022-09-24T12:49:47.301Z,58.65
2022-09-24T12:50:47.234Z,58.19
2022-09-24T12:51:46.907Z,57.75
2022-09-24T12:52:47.278Z,57.77